Airfield :
LOGIN :

Register | Disclaimer

   EN    FR    IT 

 










Legend :    VFR   Marginal VFR   IFR   Intensive IFR   Very Intensive IFR
Visi :
Ceiling :
>= 8 km
>= 3000ft
5 to 8 km
1000 to 3000 ft
1500m to 5 km
500 to 1000 ft
800 to 1500m
200 to 500 ft
< 800m
< 200 ft
Symbols :   Thunderstorms  Fog  Heavy snow  Heavy precipitations  Wind > 20 kt
SIGMETs :     Misc.  Thunderstorms  Icing  Turbulence  Mountain Waves  Volcanic Ashes







- Airport Elevation : 56 ft
- IATA code : ILY
- Download approach charts


EGPI - Islay

CURRENT METAR :
  • 211150Z 32021KT 290V350 9999 FEW029 14/06 Q1030

EXPIRED METARs :
  • 211120Z 32019KT 290V350 9999 FEW028 14/06 Q1030
  • 211050Z 32020KT 290V350 9999 FEW027 SCT042 13/07 Q1030
  • 211020Z 31019KT 9999 FEW025 SCT042 12/06 Q1029
  • 210950Z 32018KT 290V350 9999 FEW027 SCT033 13/06 Q1029
  • 210920Z AUTO 31017KT 280V350 9999 // FEW027/// 13/07 Q1029

TAF TAF EGPI
Valid from the 21 at 12:00 until the 21 at 18:00 UTC


211057Z 2112/2118 32015KT 9999 FEW030
PROB40
TEMPO 2112/2118 32020G30KT
No reported NOTAMs for that airfield.
1 SIGMET reported for the Scottish FIR (EGPX) :
 
Severe mountain waves
EGPX SIGMET 01 VALID 211115/211515 EGRR
EGPX SCOTTISH FIR SEV MTW OBS WI N5832 W00300 - N5613 W00141 - N5555 W00433 - N5825 W00504 - N5832 W00300 FL050/150 STNR NC=



MET'MAP, your aeronautical weather chart ! - Copyright ORBIFLY December 2007 - Disclaimer

ORBIFLY MET'MAP TEAM :

Programming & Development : Alexandra Zaïnal
Concept & Development : Baudouin d'Aumeries
Co-Development & Prog : Marc-Olivier Méhu
Technical & hardware support : Manuel Goepfert

Contact : metmap@orbifly.com




SOURCES & CREDITS :

   NOAA